createdAt,value
2022-12-24T00:04:02.345Z,11.61
2022-12-24T00:09:04.763Z,11.61
2022-12-24T00:14:07.314Z,11.62
2022-12-24T00:19:09.675Z,11.48
2022-12-24T00:24:11.820Z,11.53
2022-12-24T00:29:13.991Z,11.46
2022-12-24T00:34:16.036Z,11.57
2022-12-24T00:39:18.660Z,11.53
2022-12-24T00:44:20.800Z,11.42
2022-12-24T00:49:23.259Z,11.32
2022-12-24T00:54:27.278Z,11.16
2022-12-24T00:59:29.300Z,11.07
2022-12-24T01:04:49.832Z,11.09
2022-12-24T01:09:51.924Z,11.19
2022-12-24T01:14:53.974Z,11.24
2022-12-24T01:19:56.013Z,11.37
2022-12-24T01:24:58.190Z,11.49
2022-12-24T01:30:00.353Z,11.64
2022-12-24T01:35:02.527Z,11.81
2022-12-24T01:40:26.176Z,11.98
2022-12-24T01:45:47.205Z,12.10
2022-12-24T01:51:14.756Z,12.11
2022-12-24T01:56:18.937Z,12.09
2022-12-24T02:01:21.269Z,11.58
2022-12-24T02:06:24.137Z,11.15
2022-12-24T02:11:26.435Z,11.33
2022-12-24T02:16:44.077Z,11.26
2022-12-24T02:22:08.911Z,10.82
2022-12-24T02:27:55.909Z,10.54
2022-12-24T02:33:18.172Z,10.35
2022-12-24T02:38:43.429Z,10.36
2022-12-24T02:43:48.876Z,10.32
2022-12-24T02:48:51.821Z,10.29
2022-12-24T02:53:53.924Z,10.21
2022-12-24T02:59:14.613Z,10.21
2022-12-24T03:04:40.688Z,10.24
2022-12-24T03:10:03.675Z,10.33
2022-12-24T03:15:09.427Z,10.35
2022-12-24T03:20:18.983Z,10.43
2022-12-24T03:25:25.827Z,10.36
2022-12-24T03:30:28.219Z,10.39
2022-12-24T03:35:30.336Z,10.40
2022-12-24T03:40:32.373Z,10.42
2022-12-24T03:45:34.600Z,10.30
2022-12-24T03:50:37.166Z,10.43
2022-12-24T03:55:40.088Z,10.45
2022-12-24T04:00:42.125Z,10.50
2022-12-24T04:05:44.391Z,10.48
2022-12-24T04:10:46.413Z,10.36
2022-12-24T04:16:05.649Z,10.21
2022-12-24T04:21:10.354Z,10.20
2022-12-24T04:26:14.306Z,10.09
2022-12-24T04:31:18.182Z,10.06
2022-12-24T04:36:21.308Z,10.01
2022-12-24T04:41:25.636Z,9.97
2022-12-24T04:46:33.086Z,10.00
2022-12-24T04:51:35.231Z,10.06
2022-12-24T04:56:40.693Z,10.06
2022-12-24T05:01:42.801Z,10.08
2022-12-24T05:06:44.903Z,10.06
2022-12-24T05:11:46.927Z,9.98
2022-12-24T05:16:49.156Z,10.00
2022-12-24T05:22:11.308Z,10.02
2022-12-24T05:27:13.282Z,10.02
2022-12-24T05:32:15.464Z,10.11
2022-12-24T05:37:17.692Z,10.07
2022-12-24T05:42:19.747Z,10.08
2022-12-24T05:47:21.767Z,10.09
2022-12-24T05:52:23.803Z,10.04
2022-12-24T05:57:25.761Z,9.99
2022-12-24T06:02:27.815Z,9.98
2022-12-24T06:07:29.857Z,9.96
2022-12-24T06:12:31.944Z,9.97
2022-12-24T06:17:34.090Z,9.99
2022-12-24T06:22:36.352Z,9.97
2022-12-24T06:27:38.837Z,9.98
2022-12-24T06:32:40.966Z,9.86
2022-12-24T06:37:43.008Z,9.78
2022-12-24T06:42:45.064Z,9.54
2022-12-24T06:47:47.222Z,9.43
2022-12-24T06:52:49.318Z,9.54
2022-12-24T06:57:51.350Z,9.47
2022-12-24T07:02:53.498Z,9.37
2022-12-24T07:07:55.655Z,9.60
2022-12-24T07:12:57.663Z,9.70
2022-12-24T07:17:59.649Z,9.79
2022-12-24T07:23:01.960Z,9.76
2022-12-24T07:28:04.163Z,9.83
2022-12-24T07:33:06.563Z,9.76
2022-12-24T07:38:08.999Z,9.81
2022-12-24T07:43:11.152Z,9.84
2022-12-24T07:48:13.534Z,9.88
2022-12-24T07:53:15.699Z,9.98
2022-12-24T07:58:17.833Z,10.13
2022-12-24T08:03:21.248Z,10.19
2022-12-24T08:08:23.576Z,10.18
2022-12-24T08:13:25.561Z,10.04
2022-12-24T08:18:27.653Z,9.94
2022-12-24T08:23:29.765Z,9.92
2022-12-24T08:28:31.830Z,9.87
2022-12-24T08:33:33.878Z,9.85
2022-12-24T08:38:35.928Z,9.91
2022-12-24T08:43:38.446Z,9.91
2022-12-24T08:48:40.923Z,9.84
2022-12-24T08:53:42.963Z,9.89
2022-12-24T08:58:45.247Z,9.80
2022-12-24T09:03:47.880Z,9.84
2022-12-24T09:08:50.030Z,9.82
2022-12-24T09:13:52.101Z,9.94
2022-12-24T09:18:54.203Z,10.06
2022-12-24T09:23:56.299Z,10.12
2022-12-24T09:29:00.851Z,10.18
2022-12-24T09:34:03.019Z,10.16
2022-12-24T09:39:06.252Z,10.11
2022-12-24T09:44:46.108Z,10.04
2022-12-24T09:49:54.210Z,10.04
2022-12-24T09:55:18.103Z,10.04
2022-12-24T10:00:30.776Z,10.22
2022-12-24T10:05:47.139Z,10.52
2022-12-24T10:11:00.888Z,10.55
2022-12-24T10:16:32.492Z,10.87
2022-12-24T10:22:13.324Z,11.11
2022-12-24T10:27:18.024Z,11.46
2022-12-24T10:32:33.119Z,11.75
2022-12-24T10:37:35.215Z,11.95
2022-12-24T10:42:50.752Z,12.29
2022-12-24T10:48:01.649Z,12.62
2022-12-24T10:53:38.291Z,12.89
2022-12-24T10:58:55.483Z,12.72
2022-12-24T11:04:02.255Z,12.91
2022-12-24T11:09:26.864Z,13.05
2022-12-24T11:14:36.484Z,12.93
2022-12-24T11:19:40.342Z,12.61
2022-12-24T11:24:49.676Z,12.53
2022-12-24T11:29:52.238Z,12.29
2022-12-24T11:34:54.290Z,11.99
2022-12-24T11:40:02.334Z,12.34
2022-12-24T11:45:27.455Z,12.89
2022-12-24T11:50:35.411Z,13.21
2022-12-24T11:55:46.000Z,13.13
2022-12-24T12:00:51.924Z,13.16
2022-12-24T12:05:56.149Z,12.87
2022-12-24T12:11:00.269Z,13.29
2022-12-24T12:16:23.300Z,13.92
2022-12-24T12:21:35.672Z,13.41
2022-12-24T12:26:41.070Z,13.23
2022-12-24T12:31:49.195Z,12.79
2022-12-24T12:37:16.951Z,12.93
2022-12-24T12:42:31.286Z,12.98
2022-12-24T12:48:03.145Z,12.96
2022-12-24T12:53:33.080Z,13.02
2022-12-24T12:58:49.095Z,13.28
2022-12-24T13:04:17.348Z,13.62
2022-12-24T13:09:45.058Z,13.78
2022-12-24T13:15:14.376Z,13.57
2022-12-24T13:20:30.755Z,13.40
2022-12-24T13:25:42.050Z,13.00
2022-12-24T13:30:45.221Z,12.92
2022-12-24T13:36:17.967Z,13.14
2022-12-24T13:41:42.308Z,13.15
2022-12-24T13:46:58.173Z,13.18
2022-12-24T13:52:11.941Z,13.25
2022-12-24T13:57:42.776Z,13.17
2022-12-24T14:02:56.874Z,13.10
2022-12-24T14:08:04.416Z,13.11
2022-12-24T14:13:10.348Z,13.11
2022-12-24T14:18:20.409Z,13.06
2022-12-24T14:23:57.178Z,12.97
2022-12-24T14:29:32.821Z,12.74
2022-12-24T14:34:35.010Z,12.55
2022-12-24T14:39:43.798Z,12.46
2022-12-24T14:45:16.613Z,12.57
2022-12-24T14:50:51.868Z,12.52
2022-12-24T14:55:54.195Z,12.35
2022-12-24T15:01:03.423Z,12.37
2022-12-24T15:06:09.716Z,12.29
2022-12-24T15:11:22.875Z,12.29
2022-12-24T15:16:37.211Z,12.19
2022-12-24T15:21:44.016Z,12.11
2022-12-24T15:26:46.044Z,12.18
2022-12-24T15:31:57.885Z,11.96
2022-12-24T15:37:27.066Z,11.85
2022-12-24T15:42:29.338Z,11.77
2022-12-24T15:47:45.963Z,11.75
2022-12-24T15:52:48.896Z,11.87
2022-12-24T15:58:37.929Z,11.98
2022-12-24T16:04:00.235Z,12.05
2022-12-24T16:09:43.600Z,12.08
2022-12-24T16:15:00.507Z,12.06
2022-12-24T16:20:16.148Z,11.99
2022-12-24T16:25:28.977Z,11.99
2022-12-24T16:30:31.000Z,11.76
2022-12-24T16:35:36.576Z,11.64
2022-12-24T16:40:40.329Z,11.72
2022-12-24T16:45:47.371Z,11.69
2022-12-24T16:50:51.468Z,11.70
2022-12-24T16:55:53.528Z,11.63
2022-12-24T17:00:57.013Z,11.70
2022-12-24T17:05:59.032Z,11.76
2022-12-24T17:11:01.087Z,11.73
2022-12-24T17:16:03.379Z,11.98
2022-12-24T17:21:07.034Z,12.08
2022-12-24T17:26:14.998Z,11.74
2022-12-24T17:31:17.492Z,11.59
2022-12-24T17:36:20.912Z,11.59
2022-12-24T17:41:23.042Z,11.51
2022-12-24T17:46:25.257Z,11.54
2022-12-24T17:51:33.403Z,11.54
2022-12-24T17:56:35.718Z,11.49
2022-12-24T18:01:38.163Z,11.37
2022-12-24T18:06:47.259Z,11.35
2022-12-24T18:11:51.253Z,11.07
2022-12-24T18:16:53.327Z,10.98
2022-12-24T18:21:56.030Z,10.91
2022-12-24T18:26:58.123Z,10.86
2022-12-24T18:32:00.145Z,10.84
2022-12-24T18:37:02.390Z,10.74
2022-12-24T18:42:04.554Z,10.68
2022-12-24T18:47:06.851Z,10.63
2022-12-24T18:52:11.949Z,10.60
2022-12-24T18:57:13.959Z,10.57
2022-12-24T19:02:16.097Z,10.55
2022-12-24T19:07:18.352Z,10.52
2022-12-24T19:12:20.409Z,10.51
2022-12-24T19:17:22.495Z,10.49
2022-12-24T19:22:27.853Z,10.44
2022-12-24T19:27:29.848Z,10.36
2022-12-24T19:32:32.107Z,10.29
2022-12-24T19:37:34.243Z,10.26
2022-12-24T19:42:36.455Z,10.24
2022-12-24T19:47:38.854Z,10.21
2022-12-24T19:52:41.390Z,10.22
2022-12-24T19:57:43.542Z,10.24
2022-12-24T20:02:45.710Z,10.23
2022-12-24T20:07:47.947Z,10.27
2022-12-24T20:12:50.047Z,10.29
2022-12-24T20:17:53.619Z,10.31
2022-12-24T20:22:55.831Z,10.32
2022-12-24T20:27:57.911Z,10.30
2022-12-24T20:33:00.040Z,10.29
2022-12-24T20:38:02.163Z,10.25
2022-12-24T20:43:04.184Z,10.22
2022-12-24T20:48:07.315Z,10.11
2022-12-24T20:53:09.923Z,10.03
2022-12-24T20:58:18.126Z,10.01
2022-12-24T21:03:20.361Z,10.02
2022-12-24T21:08:22.434Z,10.01
2022-12-24T21:13:24.563Z,10.02
2022-12-24T21:18:26.607Z,9.94
2022-12-24T21:23:28.640Z,9.92
2022-12-24T21:28:32.107Z,9.89
2022-12-24T21:33:38.076Z,9.92
2022-12-24T21:38:41.799Z,9.89
2022-12-24T21:43:45.035Z,9.95
2022-12-24T21:49:05.779Z,9.97
2022-12-24T21:54:23.204Z,9.97
2022-12-24T21:59:27.082Z,9.94
2022-12-24T22:04:32.315Z,9.94
2022-12-24T22:09:53.102Z,9.85
2022-12-24T22:14:55.126Z,9.81
2022-12-24T22:19:57.480Z,9.77
2022-12-24T22:25:00.176Z,9.61
2022-12-24T22:30:02.204Z,9.55
2022-12-24T22:35:04.598Z,9.52
2022-12-24T22:40:08.397Z,9.51
2022-12-24T22:45:16.981Z,9.44
2022-12-24T22:50:23.508Z,9.40
2022-12-24T22:55:25.601Z,9.45
2022-12-24T23:00:57.311Z,9.45
2022-12-24T23:06:05.392Z,9.46
2022-12-24T23:11:14.647Z,9.45
2022-12-24T23:16:16.800Z,9.46
2022-12-24T23:21:19.138Z,9.45
2022-12-24T23:26:22.292Z,9.43
2022-12-24T23:31:25.977Z,9.50
2022-12-24T23:36:28.077Z,9.48
2022-12-24T23:41:30.236Z,9.51
2022-12-24T23:46:32.474Z,9.54
2022-12-24T23:51:34.614Z,9.57
2022-12-24T23:56:37.690Z,9.35
